Meteorología y climatología de Navarra
Datos de la estación - Meteo Navarra

Estación de Tafalla GN

Altitud 430 m.


Datos desde el 02/08/2020 hasta el 03/08/2020 en horario solar
Los datos son PROVISIONALES

Anterior Página 1 de 1 Siguiente Descargar: Formato para Excel 2000 o superior   Formato csv   Formato para OpenOffice Calc
Fecha Temperatura Humedad relativa Radiación global Insolación Precipitación Vel. viento 10 m Vel. viento 10 m Dir. viento 10 m
ºC % W/m² s l/m² m/s km/h º
02/08/2020 0:00 19.1 78 0.0 0 0.0 4.5 16.1 310
02/08/2020 0:10 19.1 78 0.0 0 0.0 4.5 16.3 311
02/08/2020 0:20 19.1 77 0.0 0 0.0 4.8 17.4 316
02/08/2020 0:30 19.1 77 0.0 0 0.0 6.0 21.5 322
02/08/2020 0:40 19.0 77 0.0 0 0.0 6.4 22.9 321
02/08/2020 0:50 19.0 76 0.0 0 0.0 6.5 23.2 323
02/08/2020 1:00 18.9 76 0.0 0 0.0 5.6 20.2 320
02/08/2020 1:10 18.8 76 0.0 0 0.0 4.6 16.7 314
02/08/2020 1:20 18.8 75 0.0 0 0.0 4.7 16.8 311
02/08/2020 1:30 18.8 75 0.0 0 0.0 4.5 16.3 313
02/08/2020 1:40 18.7 75 0.0 0 0.0 5.2 18.6 308
02/08/2020 1:50 18.6 76 0.0 0 0.0 5.0 18.1 304
02/08/2020 2:00 18.5 76 0.0 0 0.0 5.3 19.0 309
02/08/2020 2:10 18.3 77 0.0 0 0.2 5.0 18.0 317
02/08/2020 2:20 18.3 77 0.0 0 0.0 5.5 19.7 323
02/08/2020 2:30 18.3 78 0.0 0 0.0 4.9 17.7 322
02/08/2020 2:40 18.2 77 0.0 0 0.0 5.0 18.1 323
02/08/2020 2:50 18.1 77 0.0 0 0.0 4.7 17.1 320
02/08/2020 3:00 18.0 76 0.0 0 0.0 4.5 16.2 318
02/08/2020 3:10 17.9 75 0.0 0 0.1 4.9 17.8 317
02/08/2020 3:20 17.8 75 0.0 0 0.1 4.9 17.6 322
02/08/2020 3:30 17.7 75 0.0 0 0.0 3.8 13.7 321
02/08/2020 3:40 17.6 76 0.0 0 0.0 4.2 15.2 324
02/08/2020 3:50 17.5 77 0.0 0 0.0 4.0 14.5 323
02/08/2020 4:00 17.5 77 0.0 0 0.0 4.5 16.0 324
02/08/2020 4:10 17.5 77 0.0 0 0.0 3.0 10.7 310
02/08/2020 4:20 17.1 80 0.0 0 0.1 3.5 12.4 304
02/08/2020 4:30 16.9 81 0.0 0 0.1 3.6 12.9 301
02/08/2020 4:40 16.9 81 0.0 0 0.0 4.2 15.2 297
02/08/2020 4:50 16.8 81 0.0 0 0.0 4.2 15.2 304
02/08/2020 5:00 16.9 80 0.0 0 0.0 3.7 13.2 312
02/08/2020 5:10 17.1 80 0.0 0 0.0 3.8 13.6 314
02/08/2020 5:20 17.2 79 1.3 0 0.0 3.8 13.8 314
02/08/2020 5:30 17.6 78 19.4 0 0.0 4.6 16.7 328
02/08/2020 5:40 17.9 76 42.5 276 0.0 5.9 21.3 325
02/08/2020 5:50 18.0 76 81.8 600 0.0 5.5 19.6 320
02/08/2020 6:00 18.0 76 108.9 600 0.0 4.3 15.3 321
02/08/2020 6:10 18.3 74 140.7 600 0.0 5.5 19.6 331
02/08/2020 6:20 18.4 74 171.5 600 0.0 5.5 19.7 329
02/08/2020 6:30 18.6 73 197.7 582 0.0 5.9 21.1 330
02/08/2020 6:40 19.0 72 237.2 600 0.0 5.9 21.3 328
02/08/2020 6:50 19.1 72 268.5 598 0.0 6.2 22.3 333
02/08/2020 7:00 19.3 71 300.2 600 0.0 6.3 22.6 332
02/08/2020 7:10 19.5 69 347.5 600 0.0 5.8 21.0 333
02/08/2020 7:20 19.9 69 427.0 600 0.0 5.2 18.6 328
02/08/2020 7:30 20.2 67 413.7 598 0.0 4.9 17.7 334
02/08/2020 7:40 20.1 67 421.0 534 0.0 5.1 18.4 354
02/08/2020 7:50 20.1 66 468.7 588 0.0 5.3 18.9 359
02/08/2020 8:00 20.4 65 508.3 522 0.0 5.9 21.1 342
02/08/2020 8:10 20.1 66 375.0 338 0.0 6.1 22.0 345
02/08/2020 8:20 19.8 67 525.9 542 0.0 5.3 18.9 354
02/08/2020 8:30 20.2 65 627.5 600 0.0 6.4 22.9 346
02/08/2020 8:40 20.5 63 687.7 600 0.0 5.7 20.5 351
02/08/2020 8:50 20.5 62 510.2 600 0.0 5.9 21.2 349
02/08/2020 9:00 20.3 63 568.6 572 0.0 5.1 18.5 357
02/08/2020 9:10 20.8 61 759.2 600 0.0 6.2 22.4 354
02/08/2020 9:20 21.2 60 746.5 600 0.0 5.6 20.1 344
02/08/2020 9:30 20.9 60 715.6 600 0.0 6.3 22.5 338
02/08/2020 9:40 21.0 59 731.4 600 0.0 7.4 26.7 336
02/08/2020 9:50 21.3 57 823.0 600 0.0 6.1 22.1 342
02/08/2020 10:00 21.9 56 830.0 600 0.0 5.3 18.9 349
02/08/2020 10:10 22.3 54 792.0 600 0.0 5.4 19.3 337
02/08/2020 10:20 22.0 56 713.4 600 0.0 6.5 23.5 330
02/08/2020 10:30 21.7 57 766.2 600 0.0 6.9 24.7 334
02/08/2020 10:40 21.9 55 871.0 600 0.0 7.9 28.5 328
02/08/2020 10:50 22.3 54 896.0 596 0.0 8.2 29.3 327
02/08/2020 11:00 22.2 54 963.0 600 0.0 7.5 26.8 333
02/08/2020 11:10 22.6 54 903.0 550 0.0 6.6 23.8 339
02/08/2020 11:20 22.7 54 953.0 554 0.0 6.9 24.7 332
02/08/2020 11:30 22.7 53 993.0 600 0.0 7.7 27.8 335
02/08/2020 11:40 22.7 55 974.0 600 0.0 6.2 22.4 339
02/08/2020 11:50 22.7 54 963.0 600 0.0 6.1 21.9 357
02/08/2020 12:00 22.6 54 975.0 600 0.0 5.7 20.4 357
02/08/2020 12:10 22.9 52 989.0 600 0.0 5.7 20.4 359
02/08/2020 12:20 23.0 51 953.0 600 0.0 5.9 21.1 359
02/08/2020 12:30 23.1 51 1118.0 600 0.0 6.6 23.6 355
02/08/2020 12:40 23.9 49 1048.0 600 0.0 4.9 17.7 341
02/08/2020 12:50 24.1 49 1060.0 600 0.0 6.2 22.1 334
02/08/2020 13:00 23.5 50 647.6 600 0.0 6.2 22.2 355
02/08/2020 13:10 22.4 53 548.7 600 0.0 6.4 23.0 0
02/08/2020 13:20 22.6 52 614.4 600 0.0 6.9 24.9 333
02/08/2020 13:30 22.8 51 471.9 174 0.0 5.3 19.2 337
02/08/2020 13:40 23.0 52 525.3 352 0.0 4.7 16.9 9
02/08/2020 13:50 22.4 53 406.0 0 0.0 7.1 25.6 11
02/08/2020 14:00 22.0 54 424.1 78 0.0 5.6 20.0 7
02/08/2020 14:10 22.2 54 537.1 600 0.0 5.8 21.0 2
02/08/2020 14:20 21.7 55 611.7 600 0.0 5.6 20.0 0
02/08/2020 14:30 22.2 53 959.0 600 0.0 5.8 20.8 7
02/08/2020 14:40 22.2 53 760.7 600 0.0 6.3 22.6 341
02/08/2020 14:50 22.2 54 542.2 600 0.0 6.0 21.7 338
02/08/2020 15:00 21.6 55 379.2 142 0.0 5.8 21.0 1
02/08/2020 15:10 21.5 55 423.6 340 0.0 5.6 20.2 340
02/08/2020 15:20 21.7 55 387.6 328 0.0 6.1 22.1 342
02/08/2020 15:30 21.5 55 513.7 600 0.0 6.2 22.2 357
02/08/2020 15:40 21.5 55 475.1 600 0.0 6.5 23.2 352
02/08/2020 15:50 21.3 55 392.1 494 0.0 6.8 24.5 347
02/08/2020 16:00 20.8 55 264.8 0 0.0 6.3 22.5 347
02/08/2020 16:10 20.8 56 235.1 0 0.0 6.5 23.5 332
02/08/2020 16:20 20.7 57 237.6 0 0.0 6.3 22.8 332
02/08/2020 16:30 20.6 59 221.9 0 0.1 6.1 22.1 330
02/08/2020 16:40 20.6 59 262.3 246 0.0 5.8 20.7 333
02/08/2020 16:50 20.7 59 226.4 0 0.0 5.3 19.0 334
02/08/2020 17:00 20.6 59 218.0 36 0.0 6.6 23.7 331
02/08/2020 17:10 20.5 59 329.3 390 0.0 5.7 20.4 344
02/08/2020 17:20 20.8 57 363.4 600 0.0 6.4 23.1 336
02/08/2020 17:30 20.9 57 354.9 584 0.0 6.4 23.0 329
02/08/2020 17:40 20.4 59 310.8 496 0.0 7.2 26.0 328
02/08/2020 17:50 20.4 59 301.6 600 0.0 7.2 25.8 331
02/08/2020 18:00 20.1 59 194.7 600 0.0 6.4 22.9 333
02/08/2020 18:10 19.6 60 182.0 600 0.0 6.1 22.1 340
02/08/2020 18:20 19.2 61 125.0 356 0.0 5.3 18.9 342
02/08/2020 18:30 18.9 62 46.2 0 0.0 5.9 21.1 340
02/08/2020 18:40 18.7 63 41.7 0 0.0 5.4 19.3 334
02/08/2020 18:50 18.5 65 39.9 0 0.1 6.0 21.4 330
02/08/2020 19:00 18.4 65 32.3 0 0.0 6.4 23.0 323
02/08/2020 19:10 18.3 66 14.2 0 0.0 5.8 21.0 324
02/08/2020 19:20 18.3 66 0.0 0 0.0 5.8 20.9 325
02/08/2020 19:30 18.2 67 0.0 0 0.0 5.8 20.8 326
02/08/2020 19:40 18.1 67 0.0 0 0.0 4.9 17.5 324
02/08/2020 19:50 18.1 67 0.0 0 0.0 6.5 23.4 326
02/08/2020 20:00 18.1 66 0.0 0 0.0 6.0 21.5 328
02/08/2020 20:10 17.9 66 0.0 0 0.0 5.6 20.2 327
02/08/2020 20:20 17.9 66 0.0 0 0.0 5.7 20.6 332
02/08/2020 20:30 17.8 66 0.0 0 0.0 5.6 20.2 333
02/08/2020 20:40 17.7 66 0.0 0 0.0 5.5 19.8 332
02/08/2020 20:50 17.6 66 0.0 0 0.0 4.3 15.6 337
02/08/2020 21:00 17.4 66 0.0 0 0.0 4.2 15.1 340
02/08/2020 21:10 17.5 66 0.0 0 0.0 5.2 18.8 329
02/08/2020 21:20 17.4 66 0.0 0 0.0 5.0 18.0 333
02/08/2020 21:30 17.3 67 0.0 0 0.0 5.0 18.1 333
02/08/2020 21:40 17.2 68 0.0 0 0.0 5.0 17.9 326
02/08/2020 21:50 17.2 68 0.0 0 0.0 4.6 16.7 325
02/08/2020 22:00 17.2 69 0.0 0 0.0 5.2 18.7 324
02/08/2020 22:10 17.2 68 0.0 0 0.0 5.2 18.5 324
02/08/2020 22:20 17.1 69 0.0 0 0.0 4.4 15.9 322
02/08/2020 22:30 17.1 69 0.0 0 0.0 5.2 18.8 322
02/08/2020 22:40 17.0 70 0.0 0 0.0 5.5 19.9 320
02/08/2020 22:50 17.0 70 0.0 0 0.0 4.5 16.3 316
02/08/2020 23:00 16.9 71 0.0 0 0.0 4.2 15.2 314
02/08/2020 23:10 17.0 70 0.0 0 0.0 5.1 18.3 321
02/08/2020 23:20 17.0 70 0.0 0 0.0 5.4 19.4 319
02/08/2020 23:30 16.9 70 0.0 0 0.0 5.1 18.3 321
02/08/2020 23:40 16.8 70 0.0 0 0.0 5.2 18.6 319
02/08/2020 23:50 16.8 70 0.0 0 0.0 4.6 16.4 312
Anterior Página 1 de 1 Siguiente

NOTA: Tipo de datos según el color:
   - Valores diarios o 10 minutos correctos
   - Valores diarios calculados a partir de un número de datos 10 minutos menor que 144 y mayor que 120, o de un número de datos semihorarios menor que 48 y mayor que 40 (caso de las estaciones de INTIA y del Ministerio)
   - Valores diez minutos estimados


Contacto        Enlaces        Aviso legal